Brohman, Michigan
Current Conditions -  °F | °C
As of 12:34 AM on Monday 22 Dec 2014 (Local Time) from KRQB Reporting Station
Haze Haze  
Wind Chill: 21°   Ceiling: 1000
Heat Index: 29°   Visibility: 5mi
Dew Point: 28°   Wind: 8mph
Humidity: 95%   Direction: 160°SSE
Pressure: 30.08"   Gusts: NA
Location:  43.69°N, 85.82°W
Report Text: KRQB 220534Z AUTO 16007KT 5SM BR BKN010 BKN080 M02/M02 A3008 RMK AO2 T10161023
Loading
Personal Weather Stations






























Interactive Weather Map New forecast layout! Learn more

10-Day Weather Forecast

Advertisements
Track Severe Weather on mobile